Time,TemperatureF,DewpointF,PressureIn,WindDirection,WindDirectionDegrees,WindSpeedMPH,WindSpeedGustMPH,Humidity,HourlyPrecipIn,Conditions,Clouds,dailyrainin,SoftwareType,DateUTC
2013-04-10 00:04:00,48.3,45.2,29.93,NE,49,6.0,6.0,89,0.00,,,0.00,Wunderground v.1.15,2013-04-10 04:04:00,
2013-04-10 00:09:00,48.3,45.2,29.93,NE,53,6.0,6.0,89,0.00,,,0.00,Wunderground v.1.15,2013-04-10 04:09:00,
2013-04-10 00:14:00,48.3,45.2,29.93,NE,46,5.0,7.0,89,0.00,,,0.00,Wunderground v.1.15,2013-04-10 04:14:00,
2013-04-10 00:24:00,48.4,45.6,29.94,East,81,5.0,6.0,90,0.00,,,0.00,Wunderground v.1.15,2013-04-10 04:24:00,
2013-04-10 00:29:00,48.5,45.4,29.94,ENE,67,6.0,8.0,89,0.00,,,0.00,Wunderground v.1.15,2013-04-10 04:29:00,
2013-04-10 00:34:00,48.6,45.5,29.94,East,86,7.0,8.0,89,0.00,,,0.00,Wunderground v.1.15,2013-04-10 04:34:00,
2013-04-10 00:44:00,48.5,45.4,29.94,ENE,74,7.0,8.0,89,0.00,,,0.00,Wunderground v.1.15,2013-04-10 04:44:00,
2013-04-10 00:54:00,48.3,45.2,29.95,ENE,63,7.0,8.0,89,0.00,,,0.00,Wunderground v.1.15,2013-04-10 04:54:00,
2013-04-10 00:59:00,48.3,45.2,29.95,NE,53,7.0,7.0,89,0.00,,,0.00,Wunderground v.1.15,2013-04-10 04:59:00,
2013-04-10 01:09:00,48.2,45.1,29.95,NNE,30,8.0,8.0,89,0.00,,,0.00,Wunderground v.1.15,2013-04-10 05:09:00,
2013-04-10 01:14:00,48.2,45.1,29.95,ENE,57,8.0,9.0,89,0.00,,,0.00,Wunderground v.1.15,2013-04-10 05:14:00,
2013-04-10 01:24:00,48.2,45.4,29.95,ENE,65,9.0,9.0,90,0.00,,,0.00,Wunderground v.1.15,2013-04-10 05:24:00,
2013-04-10 01:34:00,48.2,45.4,29.95,ENE,71,8.0,9.0,90,0.00,,,0.00,Wunderground v.1.15,2013-04-10 05:34:00,
2013-04-10 01:44:00,48.1,45.3,29.95,ENE,66,7.0,8.0,90,0.00,,,0.01,Wunderground v.1.15,2013-04-10 05:44:00,
2013-04-10 01:54:00,47.7,45.2,29.95,ENE,70,7.0,8.0,91,0.00,,,0.01,Wunderground v.1.15,2013-04-10 05:54:00,
2013-04-10 01:59:00,47.5,45.0,29.95,ENE,61,7.0,7.0,91,0.00,,,0.01,Wunderground v.1.15,2013-04-10 05:59:00,
2013-04-10 02:09:00,47.3,44.8,29.94,East,79,6.0,6.0,91,0.00,,,0.01,Wunderground v.1.15,2013-04-10 06:09:00,
2013-04-10 02:14:00,47.3,44.8,29.95,East,80,6.0,6.0,91,0.00,,,0.01,Wunderground v.1.15,2013-04-10 06:14:00,
2013-04-10 02:23:00,47.2,44.7,29.95,ENE,72,4.0,5.0,91,0.00,,,0.01,Wunderground v.1.15,2013-04-10 06:23:00,
2013-04-10 02:28:00,47.3,45.1,29.95,ENE,78,4.0,4.0,92,0.00,,,0.01,Wunderground v.1.15,2013-04-10 06:28:00,
2013-04-10 02:38:00,47.2,45.0,29.95,ENE,74,4.0,4.0,92,0.00,,,0.01,Wunderground v.1.15,2013-04-10 06:38:00,
2013-04-10 02:48:00,47.2,45.0,29.94,East,82,4.0,5.0,92,0.00,,,0.01,Wunderground v.1.15,2013-04-10 06:48:00,
2013-04-10 02:58:00,47.1,44.9,29.93,ENE,69,5.0,5.0,92,0.00,,,0.01,Wunderground v.1.15,2013-04-10 06:58:00,
2013-04-10 03:08:00,47.5,45.3,29.93,ENE,63,5.0,5.0,92,0.00,,,0.01,Wunderground v.1.15,2013-04-10 07:08:00,
2013-04-10 03:13:00,47.5,45.3,29.94,NE,45,5.0,5.0,92,0.00,,,0.01,Wunderground v.1.15,2013-04-10 07:13:00,
2013-04-10 03:23:00,47.4,45.2,29.93,NE,50,6.0,7.0,92,0.00,,,0.01,Wunderground v.1.15,2013-04-10 07:23:00,
2013-04-10 03:33:00,47.0,44.5,29.93,ENE,76,7.0,7.0,91,0.00,,,0.01,Wunderground v.1.15,2013-04-10 07:33:00,
2013-04-10 03:38:00,46.7,43.9,29.93,ENE,58,8.0,8.0,90,0.00,,,0.01,Wunderground v.1.15,2013-04-10 07:38:00,
2013-04-10 03:43:00,46.5,43.7,29.94,ENE,69,8.0,8.0,90,0.00,,,0.01,Wunderground v.1.15,2013-04-10 07:43:00,
2013-04-10 03:48:00,46.4,43.6,29.93,East,84,7.0,8.0,90,0.00,,,0.01,Wunderground v.1.15,2013-04-10 07:48:00,
2013-04-10 03:53:00,46.3,43.5,29.94,East,93,7.0,7.0,90,0.00,,,0.01,Wunderground v.1.15,2013-04-10 07:53:00,
2013-04-10 03:58:00,46.2,43.4,29.93,ENE,70,6.0,8.0,90,0.00,,,0.01,Wunderground v.1.15,2013-04-10 07:58:00,
2013-04-10 04:08:00,46.1,43.3,29.93,ENE,78,5.0,7.0,90,0.00,,,0.01,Wunderground v.1.15,2013-04-10 08:08:00,
2013-04-10 04:13:00,46.1,43.6,29.93,NE,56,5.0,7.0,91,0.00,,,0.01,Wunderground v.1.15,2013-04-10 08:13:00,
2013-04-10 04:18:00,45.9,43.4,29.92,ENE,70,7.0,7.0,91,0.00,,,0.01,Wunderground v.1.15,2013-04-10 08:18:00,
2013-04-10 04:23:00,45.8,43.3,29.92,ENE,69,7.0,9.0,91,0.00,,,0.01,Wunderground v.1.15,2013-04-10 08:23:00,
2013-04-10 04:33:00,45.5,42.7,29.91,ENE,75,8.0,9.0,90,0.00,,,0.01,Wunderground v.1.15,2013-04-10 08:33:00,
2013-04-10 04:38:00,45.3,42.8,29.91,East,86,7.0,7.0,91,0.00,,,0.01,Wunderground v.1.15,2013-04-10 08:38:00,
2013-04-10 04:43:00,45.1,42.6,29.91,ENE,78,7.0,10.0,91,0.00,,,0.01,Wunderground v.1.15,2013-04-10 08:43:00,
2013-04-10 04:48:00,45.1,42.6,29.91,ENE,77,7.0,7.0,91,0.00,,,0.01,Wunderground v.1.15,2013-04-10 08:48:00,
2013-04-10 04:53:00,45.0,42.5,29.91,East,85,6.0,8.0,91,0.00,,,0.01,Wunderground v.1.15,2013-04-10 08:53:00,
2013-04-10 04:58:00,44.8,42.3,29.91,ENE,72,7.0,8.0,91,0.00,,,0.01,Wunderground v.1.15,2013-04-10 08:58:00,
2013-04-10 05:08:00,44.7,42.2,29.92,NE,55,7.0,7.0,91,0.00,,,0.01,Wunderground v.1.15,2013-04-10 09:08:00,
2013-04-10 05:13:00,44.6,42.1,29.92,ENE,69,8.0,8.0,91,0.00,,,0.01,Wunderground v.1.15,2013-04-10 09:13:00,
2013-04-10 05:23:00,44.5,42.0,29.92,ENE,78,6.0,9.0,91,0.00,,,0.01,Wunderground v.1.15,2013-04-10 09:23:00,
2013-04-10 05:33:00,44.3,41.8,29.91,ENE,71,7.0,10.0,91,0.00,,,0.01,Wunderground v.1.15,2013-04-10 09:33:00,
2013-04-10 05:38:00,44.2,41.7,29.91,East,88,8.0,10.0,91,0.00,,,0.01,Wunderground v.1.15,2013-04-10 09:38:00,
2013-04-10 05:43:00,44.1,41.6,29.91,East,88,8.0,10.0,91,0.00,,,0.01,Wunderground v.1.15,2013-04-10 09:43:00,
2013-04-10 05:48:00,44.0,41.5,29.91,East,79,7.0,7.0,91,0.00,,,0.01,Wunderground v.1.15,2013-04-10 09:48:00,
2013-04-10 05:53:00,44.0,41.5,29.91,East,85,7.0,8.0,91,0.00,,,0.01,Wunderground v.1.15,2013-04-10 09:53:00,
2013-04-10 05:58:00,43.9,41.4,29.91,ENE,65,7.0,7.0,91,0.00,,,0.01,Wunderground v.1.15,2013-04-10 09:58:00,
2013-04-10 06:08:00,43.9,41.4,29.91,East,79,6.0,7.0,91,0.00,,,0.01,Wunderground v.1.15,2013-04-10 10:08:00,
2013-04-10 06:18:00,43.8,41.3,29.91,ENE,78,6.0,6.0,91,0.00,,,0.01,Wunderground v.1.15,2013-04-10 10:18:00,
2013-04-10 06:28:00,43.8,41.6,29.91,East,94,5.0,5.0,92,0.00,,,0.01,Wunderground v.1.15,2013-04-10 10:28:00,
2013-04-10 06:38:00,43.8,41.6,29.91,East,99,4.0,7.0,92,0.00,,,0.01,Wunderground v.1.15,2013-04-10 10:38:00,
2013-04-10 06:48:00,43.8,41.6,29.90,East,90,5.0,5.0,92,0.00,,,0.01,Wunderground v.1.15,2013-04-10 10:48:00,
2013-04-10 06:53:00,43.8,41.6,29.90,East,81,4.0,5.0,92,0.00,,,0.01,Wunderground v.1.15,2013-04-10 10:53:00,
2013-04-10 06:58:00,43.8,41.6,29.90,ENE,78,5.0,7.0,92,0.00,,,0.01,Wunderground v.1.15,2013-04-10 10:58:00,
2013-04-10 07:08:00,43.9,41.7,29.90,ENE,74,4.0,4.0,92,0.00,,,0.01,Wunderground v.1.15,2013-04-10 11:08:00,
2013-04-10 07:18:00,43.8,41.6,29.90,East,82,5.0,7.0,92,0.00,,,0.01,Wunderground v.1.15,2013-04-10 11:18:00,
2013-04-10 07:28:00,43.8,41.6,29.89,ENE,69,6.0,6.0,92,0.00,,,0.01,Wunderground v.1.15,2013-04-10 11:28:00,
2013-04-10 07:38:00,43.9,41.7,29.90,ENE,60,6.0,6.0,92,0.00,,,0.01,Wunderground v.1.15,2013-04-10 11:38:00,
2013-04-10 07:48:00,44.0,41.8,29.89,ENE,75,5.0,8.0,92,0.00,,,0.01,Wunderground v.1.15,2013-04-10 11:48:00,
2013-04-10 07:53:00,44.0,41.8,29.89,ENE,75,7.0,10.0,92,0.00,,,0.01,Wunderground v.1.15,2013-04-10 11:53:00,
2013-04-10 07:58:00,44.0,41.8,29.90,East,80,7.0,7.0,92,0.00,,,0.01,Wunderground v.1.15,2013-04-10 11:58:00,
2013-04-10 08:08:00,44.1,41.9,29.90,NE,44,6.0,8.0,92,0.00,,,0.01,Wunderground v.1.15,2013-04-10 12:08:00,
2013-04-10 08:18:00,44.3,42.4,29.92,NE,36,10.0,11.0,93,0.00,,,0.01,Wunderground v.1.15,2013-04-10 12:18:00,
2013-04-10 08:28:00,44.5,42.6,29.92,NNE,28,11.0,11.0,93,0.00,,,0.01,Wunderground v.1.15,2013-04-10 12:28:00,
2013-04-10 08:38:00,44.8,42.9,29.92,NNE,21,10.0,10.0,93,0.00,,,0.01,Wunderground v.1.15,2013-04-10 12:38:00,
2013-04-10 08:48:00,44.7,42.8,29.91,NE,35,10.0,10.0,93,0.00,,,0.02,Wunderground v.1.15,2013-04-10 12:48:00,
2013-04-10 08:53:00,44.6,42.7,29.91,ENE,57,10.0,11.0,93,0.00,,,0.02,Wunderground v.1.15,2013-04-10 12:53:00,
2013-04-10 08:58:00,44.4,42.5,29.91,NNE,32,11.0,12.0,93,0.00,,,0.02,Wunderground v.1.15,2013-04-10 12:58:00,
2013-04-10 09:08:00,44.3,42.4,29.91,NE,54,9.0,9.0,93,0.00,,,0.02,Wunderground v.1.15,2013-04-10 13:08:00,
2013-04-10 09:18:00,44.5,42.6,29.89,NE,53,9.0,10.0,93,0.00,,,0.02,Wunderground v.1.15,2013-04-10 13:18:00,
2013-04-10 09:28:00,44.7,42.8,29.91,NE,46,10.0,10.0,93,0.00,,,0.02,Wunderground v.1.15,2013-04-10 13:28:00,
2013-04-10 09:38:00,44.5,42.6,29.91,NE,49,9.0,9.0,93,0.00,,,0.02,Wunderground v.1.15,2013-04-10 13:38:00,
2013-04-10 09:48:00,44.6,42.7,29.91,NNE,31,9.0,9.0,93,0.00,,,0.02,Wunderground v.1.15,2013-04-10 13:48:00,
2013-04-10 09:58:00,44.4,42.5,29.91,NNE,27,9.0,10.0,93,0.00,,,0.02,Wunderground v.1.15,2013-04-10 13:58:00,
2013-04-10 10:08:00,44.1,42.2,29.90,NE,42,9.0,9.0,93,0.00,,,0.02,Wunderground v.1.15,2013-04-10 14:08:00,
2013-04-10 10:18:00,44.2,42.3,29.90,NNE,28,9.0,11.0,93,0.00,,,0.03,Wunderground v.1.15,2013-04-10 14:18:00,
2013-04-10 10:28:00,44.1,42.2,29.90,NE,38,10.0,10.0,93,0.00,,,0.03,Wunderground v.1.15,2013-04-10 14:28:00,
2013-04-10 10:38:00,43.8,41.9,29.91,NNE,22,9.0,9.0,93,0.00,,,0.03,Wunderground v.1.15,2013-04-10 14:38:00,
2013-04-10 10:48:00,44.0,42.1,29.91,ENE,65,7.0,8.0,93,0.00,,,0.03,Wunderground v.1.15,2013-04-10 14:48:00,
2013-04-10 10:58:00,44.1,42.2,29.90,ENE,74,11.0,11.0,93,0.00,,,0.03,Wunderground v.1.15,2013-04-10 14:58:00,
2013-04-10 11:08:00,44.2,42.3,29.91,ENE,57,10.0,11.0,93,0.00,,,0.03,Wunderground v.1.15,2013-04-10 15:08:00,
2013-04-10 11:13:00,44.0,42.1,29.91,NE,55,10.0,11.0,93,0.00,,,0.03,Wunderground v.1.15,2013-04-10 15:13:00,
2013-04-10 11:23:00,43.8,41.9,29.91,ENE,66,11.0,12.0,93,0.00,,,0.03,Wunderground v.1.15,2013-04-10 15:23:00,
2013-04-10 11:33:00,44.0,42.1,29.90,ENE,61,11.0,12.0,93,0.00,,,0.03,Wunderground v.1.15,2013-04-10 15:33:00,
2013-04-10 11:43:00,43.8,41.9,29.89,East,82,11.0,11.0,93,0.00,,,0.03,Wunderground v.1.15,2013-04-10 15:43:00,
2013-04-10 11:48:00,43.8,41.9,29.89,East,80,10.0,10.0,93,0.00,,,0.03,Wunderground v.1.15,2013-04-10 15:48:00,
2013-04-10 11:58:00,43.8,41.9,29.88,ENE,68,9.0,9.0,93,0.00,,,0.03,Wunderground v.1.15,2013-04-10 15:58:00,
2013-04-10 12:08:00,43.8,41.9,29.90,ENE,63,6.0,6.0,93,0.00,,,0.03,Wunderground v.1.15,2013-04-10 16:08:00,
2013-04-10 12:13:00,43.8,41.9,29.89,East,86,7.0,9.0,93,0.00,,,0.03,Wunderground v.1.15,2013-04-10 16:13:00,
2013-04-10 12:23:00,43.6,41.7,29.89,East,88,6.0,7.0,93,0.00,,,0.03,Wunderground v.1.15,2013-04-10 16:23:00,
2013-04-10 12:28:00,43.7,41.8,29.89,ESE,102,6.0,6.0,93,0.00,,,0.03,Wunderground v.1.15,2013-04-10 16:28:00,
2013-04-10 12:33:00,43.7,41.8,29.90,ESE,109,3.0,6.0,93,0.00,,,0.03,Wunderground v.1.15,2013-04-10 16:33:00,
2013-04-10 12:43:00,44.1,42.5,29.89,East,95,4.0,6.0,94,0.00,,,0.03,Wunderground v.1.15,2013-04-10 16:43:00,
2013-04-10 12:53:00,44.3,42.4,29.94,NNW,344,8.0,11.0,93,0.00,,,0.03,Wunderground v.1.15,2013-04-10 16:53:00,
2013-04-10 12:58:00,44.2,42.3,29.91,NE,42,9.0,9.0,93,0.00,,,0.03,Wunderground v.1.15,2013-04-10 16:58:00,
2013-04-10 13:08:00,44.1,42.5,29.92,NNE,19,10.0,10.0,94,0.00,,,0.03,Wunderground v.1.15,2013-04-10 17:08:00,
2013-04-10 13:18:00,44.4,42.5,29.92,North,11,9.0,9.0,93,0.00,,,0.03,Wunderground v.1.15,2013-04-10 17:18:00,
2013-04-10 13:28:00,44.8,43.2,29.91,NE,38,10.0,10.0,94,0.00,,,0.03,Wunderground v.1.15,2013-04-10 17:28:00,
2013-04-10 13:33:00,45.1,43.5,29.91,NNE,25,10.0,11.0,94,0.00,,,0.03,Wunderground v.1.15,2013-04-10 17:33:00,
2013-04-10 13:43:00,45.3,43.7,29.90,NE,35,8.0,9.0,94,0.00,,,0.03,Wunderground v.1.15,2013-04-10 17:43:00,
2013-04-10 13:53:00,45.4,43.8,29.87,ENE,59,9.0,9.0,94,0.00,,,0.03,Wunderground v.1.15,2013-04-10 17:53:00,
2013-04-10 13:58:00,45.4,43.8,29.87,NE,48,8.0,8.0,94,0.00,,,0.03,Wunderground v.1.15,2013-04-10 17:58:00,
2013-04-10 14:08:00,45.6,44.0,29.85,East,94,8.0,8.0,94,0.00,,,0.03,Wunderground v.1.15,2013-04-10 18:08:00,
2013-04-10 14:13:00,45.5,43.6,29.85,East,90,7.0,10.0,93,0.00,,,0.03,Wunderground v.1.15,2013-04-10 18:13:00,
2013-04-10 14:23:00,45.4,43.5,29.83,East,86,8.0,8.0,93,0.00,,,0.03,Wunderground v.1.15,2013-04-10 18:23:00,
2013-04-10 14:33:00,45.4,43.5,29.84,NE,55,8.0,10.0,93,0.00,,,0.03,Wunderground v.1.15,2013-04-10 18:33:00,
2013-04-10 14:43:00,45.1,43.2,29.83,NE,42,10.0,11.0,93,0.00,,,0.03,Wunderground v.1.15,2013-04-10 18:43:00,
2013-04-10 14:48:00,45.0,43.1,29.86,NNE,15,10.0,13.0,93,0.00,,,0.03,Wunderground v.1.15,2013-04-10 18:48:00,
2013-04-10 14:58:00,45.1,43.2,29.90,ENE,74,12.0,12.0,93,0.00,,,0.03,Wunderground v.1.15,2013-04-10 18:58:00,
2013-04-10 15:08:00,45.1,43.2,29.81,NE,54,11.0,11.0,93,0.39,,,0.08,Wunderground v.1.15,2013-04-10 19:08:00,
2013-04-10 15:18:00,46.1,44.2,29.80,SE,134,7.0,7.0,93,0.34,,,0.13,Wunderground v.1.15,2013-04-10 19:18:00,
2013-04-10 15:28:00,45.9,44.0,29.82,ESE,119,7.0,7.0,93,0.26,,,0.18,Wunderground v.1.15,2013-04-10 19:28:00,
2013-04-10 15:33:00,45.5,43.6,29.82,East,100,7.0,7.0,93,0.36,,,0.21,Wunderground v.1.15,2013-04-10 19:33:00,
2013-04-10 15:43:00,45.5,43.6,29.86,SSE,148,3.0,4.0,93,0.38,,,0.27,Wunderground v.1.15,2013-04-10 19:43:00,
2013-04-10 15:48:00,45.5,43.6,29.86,NNW,339,3.0,5.0,93,0.28,,,0.30,Wunderground v.1.15,2013-04-10 19:48:00,
2013-04-10 15:53:00,45.5,43.6,29.85,NE,36,5.0,8.0,93,0.40,,,0.33,Wunderground v.1.15,2013-04-10 19:53:00,
2013-04-10 15:58:00,45.6,43.7,29.87,NE,38,7.0,7.0,93,0.26,,,0.36,Wunderground v.1.15,2013-04-10 19:58:00,
2013-04-10 16:08:00,46.3,44.4,29.87,NE,51,7.0,7.0,93,0.32,,,0.41,Wunderground v.1.15,2013-04-10 20:08:00,
2013-04-10 16:18:00,46.1,44.2,29.86,NNE,24,7.0,7.0,93,0.24,,,0.46,Wunderground v.1.15,2013-04-10 20:18:00,
2013-04-10 16:23:00,46.3,44.4,29.87,NE,42,7.0,7.0,93,0.31,,,0.49,Wunderground v.1.15,2013-04-10 20:23:00,
2013-04-10 16:33:00,45.7,43.8,29.88,NNE,20,9.0,10.0,93,0.29,,,0.53,Wunderground v.1.15,2013-04-10 20:33:00,
2013-04-10 16:38:00,45.6,43.7,29.89,NNE,13,9.0,9.0,93,0.29,,,0.55,Wunderground v.1.15,2013-04-10 20:38:00,
2013-04-10 16:48:00,45.7,43.8,29.90,North,355,5.0,5.0,93,0.14,,,0.57,Wunderground v.1.15,2013-04-10 20:48:00,
2013-04-10 16:58:00,45.8,43.9,29.90,North,5,6.0,6.0,93,0.07,,,0.58,Wunderground v.1.15,2013-04-10 20:58:00,
2013-04-10 17:08:00,45.9,44.0,29.89,NNE,25,8.0,11.0,93,0.04,,,0.59,Wunderground v.1.15,2013-04-10 21:08:00,
2013-04-10 17:18:00,46.0,44.1,29.90,NNE,18,11.0,11.0,93,0.04,,,0.59,Wunderground v.1.15,2013-04-10 21:18:00,
2013-04-10 17:28:00,45.9,44.0,29.91,NNE,16,11.0,13.0,93,0.00,,,0.59,Wunderground v.1.15,2013-04-10 21:28:00,
2013-04-10 17:38:00,45.8,43.9,29.91,NNW,335,11.0,11.0,93,0.00,,,0.59,Wunderground v.1.15,2013-04-10 21:38:00,
2013-04-10 17:48:00,45.5,43.6,29.90,North,360,12.0,17.0,93,0.00,,,0.59,Wunderground v.1.15,2013-04-10 21:48:00,
2013-04-10 17:58:00,45.2,43.3,29.90,NNE,32,13.0,13.0,93,0.00,,,0.59,Wunderground v.1.15,2013-04-10 21:58:00,
2013-04-10 18:08:00,44.9,43.0,29.90,NNE,15,11.0,11.0,93,0.00,,,0.59,Wunderground v.1.15,2013-04-10 22:08:00,
2013-04-10 18:18:00,44.7,42.8,29.92,NE,34,12.0,12.0,93,0.00,,,0.59,Wunderground v.1.15,2013-04-10 22:18:00,
2013-04-10 18:28:00,44.8,42.6,29.90,NE,52,9.0,9.0,92,0.00,,,0.59,Wunderground v.1.15,2013-04-10 22:28:00,
2013-04-10 18:33:00,44.7,42.5,29.92,NE,42,8.0,9.0,92,0.00,,,0.59,Wunderground v.1.15,2013-04-10 22:33:00,
2013-04-10 18:43:00,44.7,42.5,29.89,NE,51,9.0,12.0,92,0.00,,,0.60,Wunderground v.1.15,2013-04-10 22:43:00,
2013-04-10 18:48:00,44.6,42.4,29.91,NE,42,8.0,8.0,92,0.13,,,0.62,Wunderground v.1.15,2013-04-10 22:48:00,
2013-04-10 18:58:00,44.6,42.4,29.94,NE,54,3.0,3.0,92,0.08,,,0.64,Wunderground v.1.15,2013-04-10 22:58:00,
2013-04-10 19:08:00,44.6,42.4,29.93,ENE,62,5.0,8.0,92,0.11,,,0.66,Wunderground v.1.15,2013-04-10 23:08:00,
2013-04-10 19:13:00,44.6,42.4,29.90,ENE,74,7.0,11.0,92,0.13,,,0.67,Wunderground v.1.15,2013-04-10 23:13:00,
2013-04-10 19:23:00,44.4,42.2,29.83,ENE,76,13.0,13.0,92,0.15,,,0.69,Wunderground v.1.15,2013-04-10 23:23:00,
2013-04-10 19:33:00,44.0,41.8,29.87,NE,43,16.0,19.0,92,0.05,,,0.69,Wunderground v.1.15,2013-04-10 23:33:00,
2013-04-10 19:38:00,44.1,41.9,29.91,NNE,27,17.0,17.0,92,0.05,,,0.70,Wunderground v.1.15,2013-04-10 23:38:00,
2013-04-10 19:48:00,44.1,41.9,29.91,ENE,61,12.0,12.0,92,0.04,,,0.70,Wunderground v.1.15,2013-04-10 23:48:00,
2013-04-10 19:58:00,43.9,41.7,29.91,ENE,65,13.0,15.0,92,0.00,,,0.70,Wunderground v.1.15,2013-04-10 23:58:00,
2013-04-10 20:08:00,43.9,41.4,29.91,NNE,15,15.0,17.0,91,0.00,,,0.70,Wunderground v.1.15,2013-04-11 00:08:00,
2013-04-10 20:18:00,43.8,41.3,29.90,NE,37,13.0,13.0,91,0.00,,,0.70,Wunderground v.1.15,2013-04-11 00:18:00,
2013-04-10 20:28:00,43.7,41.2,29.92,NE,46,12.0,12.0,91,0.00,,,0.70,Wunderground v.1.15,2013-04-11 00:28:00,
2013-04-10 20:33:00,43.6,41.1,29.93,NE,38,11.0,12.0,91,0.00,,,0.70,Wunderground v.1.15,2013-04-11 00:33:00,
2013-04-10 20:43:00,43.5,41.0,29.94,NE,36,11.0,11.0,91,0.00,,,0.70,Wunderground v.1.15,2013-04-11 00:43:00,
2013-04-10 20:53:00,43.3,40.8,29.94,NE,40,9.0,10.0,91,0.00,,,0.70,Wunderground v.1.15,2013-04-11 00:53:00,
2013-04-10 20:58:00,43.1,40.7,29.93,NE,36,9.0,10.0,91,0.00,,,0.70,Wunderground v.1.15,2013-04-11 00:58:00,
2013-04-10 21:08:00,43.0,40.6,29.94,NNE,25,9.0,9.0,91,0.00,,,0.70,Wunderground v.1.15,2013-04-11 01:08:00,
2013-04-10 21:18:00,42.9,40.5,29.93,NNE,30,9.0,10.0,91,0.00,,,0.70,Wunderground v.1.15,2013-04-11 01:18:00,
2013-04-10 21:23:00,42.8,40.4,29.92,NE,44,10.0,10.0,91,0.00,,,0.70,Wunderground v.1.15,2013-04-11 01:23:00,
2013-04-10 21:33:00,42.8,40.4,29.92,NE,38,10.0,11.0,91,0.00,,,0.70,Wunderground v.1.15,2013-04-11 01:33:00,
2013-04-10 21:43:00,42.8,40.4,29.93,NNE,29,9.0,12.0,91,0.00,,,0.70,Wunderground v.1.15,2013-04-11 01:43:00,
2013-04-10 21:53:00,43.0,40.8,29.93,NE,44,9.0,11.0,92,0.00,,,0.70,Wunderground v.1.15,2013-04-11 01:53:00,
2013-04-10 21:58:00,43.1,40.7,29.93,ENE,62,9.0,9.0,91,0.00,,,0.70,Wunderground v.1.15,2013-04-11 01:58:00,
2013-04-10 22:08:00,43.3,40.8,29.95,ENE,70,9.0,9.0,91,0.00,,,0.70,Wunderground v.1.15,2013-04-11 02:08:00,
2013-04-10 22:13:00,43.3,40.8,29.94,ENE,76,10.0,11.0,91,0.00,,,0.70,Wunderground v.1.15,2013-04-11 02:13:00,
2013-04-10 22:23:00,43.1,40.7,29.93,ENE,65,12.0,12.0,91,0.00,,,0.70,Wunderground v.1.15,2013-04-11 02:23:00,
2013-04-10 22:33:00,43.0,40.6,29.91,ENE,69,13.0,14.0,91,0.00,,,0.70,Wunderground v.1.15,2013-04-11 02:33:00,
2013-04-10 22:38:00,42.9,40.5,29.92,East,80,13.0,17.0,91,0.00,,,0.70,Wunderground v.1.15,2013-04-11 02:38:00,
2013-04-10 22:48:00,42.5,40.1,29.90,ENE,59,14.0,14.0,91,0.00,,,0.70,Wunderground v.1.15,2013-04-11 02:48:00,
2013-04-10 22:58:00,42.3,40.1,29.93,East,90,12.0,12.0,92,0.00,,,0.70,Wunderground v.1.15,2013-04-11 02:58:00,
2013-04-10 23:08:00,42.3,40.1,29.92,ENE,71,10.0,10.0,92,0.00,,,0.70,Wunderground v.1.15,2013-04-11 03:08:00,
2013-04-10 23:13:00,42.3,40.1,29.92,ENE,78,11.0,11.0,92,0.00,,,0.70,Wunderground v.1.15,2013-04-11 03:13:00,
2013-04-10 23:23:00,42.3,40.4,29.92,ENE,74,11.0,11.0,93,0.00,,,0.70,Wunderground v.1.15,2013-04-11 03:23:00,
2013-04-10 23:33:00,42.3,40.4,29.91,ENE,57,12.0,12.0,93,0.00,,,0.70,Wunderground v.1.15,2013-04-11 03:33:00,
2013-04-10 23:43:00,42.3,40.4,29.90,ENE,77,13.0,16.0,93,0.00,,,0.70,Wunderground v.1.15,2013-04-11 03:43:00,
2013-04-10 23:48:00,42.3,40.4,29.91,ENE,70,13.0,13.0,93,0.00,,,0.70,Wunderground v.1.15,2013-04-11 03:48:00,
2013-04-10 23:53:00,42.4,40.5,29.91,NE,47,13.0,13.0,93,0.00,,,0.70,Wunderground v.1.15,2013-04-11 03:53:00,
2013-04-10 23:58:00,42.4,40.5,29.92,East,80,13.0,13.0,93,0.00,,,0.70,Wunderground v.1.15,2013-04-11 03:58:00,